Time;durP1;ratioP1;P1;durP2;ratioP2;P2;SDS_P1;SDS_P2;PMS_P1;PMS_P2;Temp;Humidity;BMP_temperature;BMP_pressure;BME280_temperature;BME280_humidity;BME280_pressure;Samples;Min_cycle;Max_cycle;Signal;HPM_P1;HPM_P2
2023/08/05 00:00:44;;;;;;;6.43;2.55;;;;;;;20.46;88.96;98640.62;4483200;32;34115;-70
2023/08/05 00:03:12;;;;;;;5.03;2.30;;;;;;;20.27;92.02;98627.81;4491258;31;33152;-72
2023/08/05 00:05:40;;;;;;;7.60;2.40;;;;;;;20.22;92.37;98631.13;4496297;32;34312;-70
2023/08/05 00:08:07;;;;;;;5.00;2.30;;;;;;;20.68;88.91;98674.81;4495932;31;33428;-70
2023/08/05 00:10:35;;;;;;;3.05;1.92;;;;;;;20.90;87.18;98690.97;4498432;31;33227;-74
2023/08/05 00:13:03;;;;;;;2.75;1.85;;;;;;;21.68;82.00;98676.75;4492572;31;33733;-74
2023/08/05 00:15:30;;;;;;;2.17;1.40;;;;;;;21.71;81.23;98659.97;4481342;31;33937;-71
2023/08/05 00:17:58;;;;;;;4.15;2.03;;;;;;;21.40;81.88;98626.94;4498631;31;33759;-70
2023/08/05 00:20:26;;;;;;;7.60;2.28;;;;;;;21.00;84.10;98603.50;4511013;31;33433;-70
2023/08/05 00:22:53;;;;;;;4.50;1.70;;;;;;;21.54;81.09;98596.94;4511183;31;34944;-69
2023/08/05 00:25:21;;;;;;;4.53;1.25;;;;;;;21.60;80.25;98616.03;4500355;31;33991;-70
2023/08/05 00:27:49;;;;;;;2.17;1.10;;;;;;;21.67;79.57;98634.22;4493088;32;34527;-69
2023/08/05 00:30:16;;;;;;;3.62;1.62;;;;;;;21.51;80.26;98639.06;4484704;31;33326;-74
2023/08/05 00:32:44;;;;;;;2.80;1.05;;;;;;;21.35;81.28;98618.59;4509849;31;33628;-74
2023/08/05 00:35:12;;;;;;;2.08;1.08;;;;;;;21.35;80.84;98604.13;4510985;31;34060;-74
2023/08/05 00:37:40;;;;;;;2.08;1.02;;;;;;;20.83;84.53;98606.63;4503567;31;34655;-70
2023/08/05 00:40:09;;;;;;;2.70;1.33;;;;;;;21.10;82.68;98593.03;4495612;31;33986;-71
2023/08/05 00:42:36;;;;;;;1.35;0.82;;;;;;;21.28;81.56;98546.94;4496081;31;33979;-71
2023/08/05 00:45:04;;;;;;;0.90;0.70;;;;;;;21.75;79.68;98541.41;4493525;32;35005;-71
2023/08/05 00:47:33;;;;;;;2.03;1.10;;;;;;;22.02;77.41;98558.44;4497772;31;31088;-71
2023/08/05 00:50:01;;;;;;;1.80;1.12;;;;;;;22.15;77.14;98577.47;4487803;31;33391;-71
2023/08/05 00:52:28;;;;;;;1.02;0.75;;;;;;;22.68;73.20;98500.78;4483289;31;33553;-70
2023/08/05 00:54:56;;;;;;;4.03;1.85;;;;;;;22.52;73.87;98436.75;4490657;31;33980;-69
2023/08/05 00:57:24;;;;;;;3.12;1.52;;;;;;;22.18;75.33;98402.63;4471362;31;33501;-70
2023/08/05 00:59:53;;;;;;;6.72;2.20;;;;;;;22.42;74.50;98381.91;4499192;31;33311;-70
2023/08/05 01:02:21;;;;;;;4.20;2.28;;;;;;;22.32;75.59;98400.66;4489800;31;33703;-71
2023/08/05 01:04:48;;;;;;;3.00;1.73;;;;;;;22.76;73.16;98466.94;4479995;31;35014;-66
2023/08/05 01:07:18;;;;;;;4.20;1.70;;;;;;;22.73;73.37;98516.50;4480938;31;33788;-72
2023/08/05 01:09:46;;;;;;;4.05;1.85;;;;;;;22.72;74.11;98512.09;4482966;31;33175;-69
2023/08/05 01:12:14;;;;;;;4.97;2.00;;;;;;;23.14;72.23;98515.09;4486627;31;35070;-71
2023/08/05 01:14:41;;;;;;;3.67;1.92;;;;;;;22.93;72.64;98470.81;4477228;32;35071;-73
2023/08/05 01:17:09;;;;;;;3.42;2.05;;;;;;;22.98;72.77;98454.56;4487433;31;34436;-73
2023/08/05 01:19:37;;;;;;;5.05;2.17;;;;;;;22.90;74.07;98449.41;4495547;31;33404;-73
2023/08/05 01:22:33;;;;;;;4.85;2.12;;;;;;;23.01;73.75;98466.94;4480531;31;34062;-72
2023/08/05 01:25:28;;;;;;;4.05;2.12;;;;;;;23.42;72.24;98463.53;4478210;31;34803;-73
2023/08/05 01:27:57;;;;;;;5.25;2.55;;;;;;;23.05;73.68;98451.78;4424927;32;33344;-73
2023/08/05 01:30:27;;;;;;;4.45;2.58;;;;;;;23.45;71.41;98467.69;4423434;32;33107;-76
2023/08/05 01:32:55;;;;;;;4.03;1.87;;;;;;;23.52;70.59;98487.56;4435225;32;33895;-74
2023/08/05 01:35:23;;;;;;;4.35;2.35;;;;;;;22.68;75.22;98568.13;4412173;32;35014;-69
2023/08/05 01:37:51;;;;;;;3.30;1.90;;;;;;;22.95;74.04;98555.13;4419381;32;33287;-72
2023/08/05 01:40:19;;;;;;;7.18;2.92;;;;;;;23.47;71.40;98487.44;4428984;32;31995;-69
2023/08/05 01:42:47;;;;;;;5.87;2.50;;;;;;;23.42;71.57;98473.62;4430969;32;34039;-71
2023/08/05 01:45:15;;;;;;;5.60;2.47;;;;;;;23.40;71.74;98456.63;4426035;32;34229;-72
2023/08/05 01:47:42;;;;;;;6.70;2.65;;;;;;;23.51;70.98;98485.06;4416891;32;35252;-72
2023/08/05 01:50:10;;;;;;;4.35;2.28;;;;;;;22.33;76.36;98481.34;4428968;32;33273;-68
2023/08/05 01:52:38;;;;;;;6.75;3.00;;;;;;;21.75;80.91;98465.97;4419113;32;33692;-71
2023/08/05 01:55:06;;;;;;;4.05;2.17;;;;;;;22.43;78.03;98443.53;4419662;32;33117;-73
2023/08/05 01:57:33;;;;;;;6.32;3.22;;;;;;;22.69;76.36;98417.06;4430441;32;33625;-73
2023/08/05 02:00:01;;;;;;;3.75;2.05;;;;;;;22.45;77.78;98416.88;4432773;32;33477;-73
2023/08/05 02:02:40;;;;;;;5.75;3.00;;;;;;;22.18;80.01;98419.00;4426787;32;34504;-73
2023/08/05 02:05:08;;;;;;;5.07;3.12;;;;;;;23.04;75.17;98394.72;4462998;31;34326;-74
2023/08/05 02:07:36;;;;;;;4.90;2.78;;;;;;;23.02;74.99;98425.78;4484976;31;33608;-75
2023/08/05 02:10:04;;;;;;;5.30;2.80;;;;;;;23.58;71.89;98421.09;4483770;31;32938;-73
2023/08/05 02:12:32;;;;;;;6.25;2.37;;;;;;;23.79;70.65;98392.50;4485107;31;34811;-73
2023/08/05 02:14:59;;;;;;;10.00;2.83;;;;;;;23.88;70.35;98354.72;4494506;31;36015;-71
2023/08/05 02:17:27;;;;;;;4.15;2.55;;;;;;;24.00;69.87;98350.13;4483635;31;34558;-71
2023/08/05 02:19:55;;;;;;;5.70;2.65;;;;;;;23.98;69.63;98367.81;4482876;31;34249;-71
2023/08/05 02:22:22;;;;;;;4.70;3.12;;;;;;;24.03;69.26;98348.81;4483893;31;34742;-70
2023/08/05 02:24:51;;;;;;;4.37;2.53;;;;;;;23.77;69.81;98350.06;4490466;31;34070;-70
2023/08/05 02:27:18;;;;;;;8.77;2.72;;;;;;;23.76;70.68;98359.34;4487337;31;33403;-70
2023/08/05 02:29:46;;;;;;;7.50;3.55;;;;;;;23.82;70.19;98353.78;4494862;31;33114;-70
2023/08/05 02:32:14;;;;;;;5.85;3.33;;;;;;;23.67;70.95;98359.63;4489220;31;33910;-73
2023/08/05 02:34:41;;;;;;;6.03;3.35;;;;;;;23.63;71.00;98366.62;4488009;31;35099;-74
2023/08/05 02:37:09;;;;;;;5.75;2.80;;;;;;;23.89;70.39;98361.87;4484200;31;33130;-71
2023/08/05 02:39:39;;;;;;;5.93;3.17;;;;;;;24.13;69.41;98336.22;4489154;31;34411;-71
2023/08/05 02:42:07;;;;;;;5.35;2.97;;;;;;;24.12;69.36;98345.50;4500822;31;33796;-71
2023/08/05 02:44:34;;;;;;;10.35;3.35;;;;;;;24.22;69.22;98350.38;4488653;31;34425;-69
2023/08/05 02:47:02;;;;;;;7.43;3.45;;;;;;;24.48;68.06;98372.88;4482643;31;33600;-69
2023/08/05 02:49:32;;;;;;;5.40;2.87;;;;;;;24.53;68.01;98376.59;4480108;31;32853;-69
2023/08/05 02:51:59;;;;;;;6.40;3.45;;;;;;;24.48;68.29;98376.44;4487305;31;35253;-70
2023/08/05 02:54:27;;;;;;;7.93;3.97;;;;;;;24.54;67.81;98356.34;4491126;31;33648;-72
2023/08/05 02:56:55;;;;;;;5.78;3.60;;;;;;;23.73;71.65;98368.84;4480408;31;34778;-72
2023/08/05 02:59:22;;;;;;;6.25;4.18;;;;;;;23.43;72.69;98421.50;4498124;31;33850;-70
2023/08/05 03:01:50;;;;;;;7.50;3.83;;;;;;;22.89;76.40;98475.00;4480155;31;33806;-72
2023/08/05 03:04:18;;;;;;;6.15;3.15;;;;;;;22.93;76.87;98508.13;4486597;31;33535;-78
2023/08/05 03:06:46;;;;;;;6.10;2.95;;;;;;;23.15;74.80;98528.53;4487791;31;33400;-72
2023/08/05 03:09:15;;;;;;;7.15;3.15;;;;;;;23.12;72.85;98487.19;4488314;31;34694;-70
2023/08/05 03:11:42;;;;;;;8.25;2.58;;;;;;;22.89;74.50;98431.37;4499738;31;33807;-67
2023/08/05 03:14:11;;;;;;;4.40;2.60;;;;;;;23.35;71.85;98430.03;4487634;31;34361;-71
2023/08/05 03:16:39;;;;;;;7.55;3.17;;;;;;;23.41;71.50;98429.09;4493192;31;34570;-71
2023/08/05 03:19:08;;;;;;;5.30;3.22;;;;;;;23.59;70.98;98457.44;4483063;31;34526;-71
2023/08/05 03:21:36;;;;;;;4.97;2.40;;;;;;;23.74;70.51;98466.09;4489305;31;34036;-72
2023/08/05 03:24:04;;;;;;;6.20;3.75;;;;;;;23.85;69.90;98459.88;4494660;31;33822;-73
2023/08/05 03:26:33;;;;;;;5.57;2.45;;;;;;;23.29;71.87;98510.09;4486738;31;34816;-72
2023/08/05 03:29:01;;;;;;;6.65;3.15;;;;;;;23.37;71.73;98556.22;4478076;31;33253;-72
2023/08/05 03:31:30;;;;;;;4.30;2.40;;;;;;;23.70;70.52;98574.16;4496493;31;33430;-72
2023/08/05 03:33:58;;;;;;;3.83;2.53;;;;;;;23.26;72.43;98567.87;4487911;31;33902;-71
2023/08/05 03:36:27;;;;;;;7.28;2.60;;;;;;;23.24;72.37;98531.78;4492407;31;33567;-71
2023/08/05 03:38:56;;;;;;;4.65;2.42;;;;;;;22.62;75.65;98471.69;4490375;31;33095;-72
2023/08/05 03:41:24;;;;;;;3.92;2.40;;;;;;;22.51;76.09;98440.53;4484371;31;33610;-71
2023/08/05 03:43:52;;;;;;;5.25;2.85;;;;;;;23.12;72.69;98427.16;4488995;31;33762;-71
2023/08/05 03:46:20;;;;;;;6.82;3.08;;;;;;;22.92;73.61;98433.66;4487498;31;34494;-71
2023/08/05 03:48:48;;;;;;;5.80;2.45;;;;;;;23.47;71.22;98443.75;4483124;31;32639;-71
2023/08/05 03:51:16;;;;;;;4.07;2.42;;;;;;;23.57;70.54;98440.47;4484245;31;33882;-71
2023/08/05 03:53:44;;;;;;;5.35;2.62;;;;;;;23.88;69.00;98443.00;4488756;31;34963;-71
2023/08/05 03:56:13;;;;;;;5.30;2.87;;;;;;;23.96;68.34;98444.56;4479734;31;33788;-71
2023/08/05 03:58:41;;;;;;;5.93;3.83;;;;;;;23.89;68.24;98447.41;4491448;31;33475;-71
2023/08/05 04:01:09;;;;;;;5.03;2.42;;;;;;;23.88;68.47;98440.28;4496073;31;33789;-72
2023/08/05 04:03:37;;;;;;;4.87;2.30;;;;;;;24.06;68.22;98424.88;4482281;31;34927;-70
2023/08/05 04:06:05;;;;;;;6.00;2.95;;;;;;;24.34;67.46;98426.94;4488605;31;33951;-71
2023/08/05 04:08:33;;;;;;;9.10;3.03;;;;;;;24.39;66.96;98422.41;4497216;31;33925;-71
2023/08/05 04:11:01;;;;;;;5.97;2.97;;;;;;;24.34;67.21;98432.41;4495209;31;33828;-70
2023/08/05 04:13:29;;;;;;;7.60;3.50;;;;;;;24.47;66.71;98434.12;4493000;31;33945;-71
2023/08/05 04:15:59;;;;;;;6.60;3.35;;;;;;;24.60;66.21;98426.53;4485734;31;34908;-70
2023/08/05 04:18:27;;;;;;;5.80;3.28;;;;;;;24.47;66.39;98443.16;4487263;31;33507;-71
2023/08/05 04:20:57;;;;;;;6.30;2.33;;;;;;;24.44;66.54;98446.37;4492523;31;33696;-72
2023/08/05 04:23:25;;;;;;;5.07;2.53;;;;;;;24.59;66.47;98457.69;4486208;31;33725;-72
2023/08/05 04:25:52;;;;;;;5.37;2.72;;;;;;;24.62;66.29;98459.97;4487044;31;33587;-72
2023/08/05 04:28:20;;;;;;;4.65;2.85;;;;;;;24.56;66.24;98466.38;4487279;31;33120;-72
2023/08/05 04:30:48;;;;;;;4.05;2.22;;;;;;;24.71;65.62;98467.78;4490592;31;34703;-72
2023/08/05 04:33:16;;;;;;;3.97;2.25;;;;;;;24.77;65.51;98469.59;4482435;31;35649;-72
2023/08/05 04:35:47;;;;;;;19.83;2.10;;;;;;;24.77;65.77;98473.16;4493389;31;34180;-73
2023/08/05 04:38:15;;;;;;;4.47;1.98;;;;;;;24.64;66.34;98471.47;4484933;31;33148;-73
2023/08/05 04:40:43;;;;;;;3.87;2.33;;;;;;;24.69;65.92;98472.66;4494125;31;33480;-72
2023/08/05 04:43:11;;;;;;;3.58;1.75;;;;;;;24.57;66.21;98476.22;4494362;31;34689;-73
2023/08/05 04:45:39;;;;;;;3.67;2.03;;;;;;;24.17;67.41;98463.19;4491423;31;32603;-73
2023/08/05 04:48:07;;;;;;;3.83;1.98;;;;;;;24.52;66.34;98462.41;4484606;31;33179;-72
2023/08/05 04:50:37;;;;;;;4.35;2.17;;;;;;;24.43;66.50;98441.97;4497052;31;33644;-73
2023/08/05 04:53:05;;;;;;;4.45;2.12;;;;;;;24.36;67.05;98431.09;4485496;31;33633;-73
2023/08/05 04:55:33;;;;;;;4.30;2.20;;;;;;;23.81;68.59;98420.38;4488169;31;34520;-72
2023/08/05 04:58:02;;;;;;;5.70;2.55;;;;;;;23.89;68.33;98402.84;4484198;31;34402;-73
2023/08/05 05:00:30;;;;;;;3.50;2.10;;;;;;;24.44;66.15;98410.00;4493415;31;34866;-73
2023/08/05 05:02:58;;;;;;;3.85;2.20;;;;;;;24.59;65.71;98403.00;4483390;31;33138;-73
2023/08/05 05:05:26;;;;;;;3.75;1.98;;;;;;;24.68;65.54;98417.13;4485703;31;33704;-73
2023/08/05 05:07:53;;;;;;;4.72;2.17;;;;;;;24.82;65.05;98418.56;4493300;31;33375;-73
2023/08/05 05:10:21;;;;;;;3.05;1.85;;;;;;;24.82;65.17;98424.03;4486291;31;33532;-73
2023/08/05 05:12:49;;;;;;;5.28;2.75;;;;;;;24.73;65.61;98428.19;4489706;31;34962;-72
2023/08/05 05:15:19;;;;;;;6.32;2.92;;;;;;;24.84;65.52;98427.34;4490997;31;33869;-73
2023/08/05 05:17:50;;;;;;;4.37;2.37;;;;;;;24.78;65.89;98405.56;4493847;31;32993;-73
2023/08/05 05:20:17;;;;;;;7.57;2.87;;;;;;;24.93;65.73;98408.66;4486790;31;33577;-71
2023/08/05 05:22:45;;;;;;;5.35;2.97;;;;;;;24.97;66.32;98409.00;4480213;31;35250;-73
2023/08/05 05:25:13;;;;;;;4.68;2.92;;;;;;;25.10;66.23;98395.06;4490238;31;33494;-72
2023/08/05 05:27:40;;;;;;;5.07;2.70;;;;;;;25.14;66.27;98390.00;4484969;31;33351;-72
2023/08/05 05:30:08;;;;;;;6.87;2.20;;;;;;;25.14;66.07;98388.06;4484277;31;33571;-73
2023/08/05 05:32:36;;;;;;;6.97;2.58;;;;;;;25.33;66.02;98397.78;4488605;31;34981;-73
2023/08/05 05:35:04;;;;;;;4.10;2.35;;;;;;;25.52;65.95;98392.09;4486203;31;33512;-72
2023/08/05 05:37:32;;;;;;;9.55;3.05;;;;;;;25.62;65.27;98391.47;4491457;31;34112;-73
2023/08/05 05:39:59;;;;;;;6.05;2.70;;;;;;;25.61;64.89;98385.16;4495180;31;34547;-73
2023/08/05 05:42:28;;;;;;;6.22;2.72;;;;;;;25.66;64.90;98398.13;4481755;31;33975;-73
2023/08/05 05:44:55;;;;;;;4.45;2.40;;;;;;;25.56;65.50;98391.38;4478931;32;33481;-73
2023/08/05 05:47:23;;;;;;;4.50;2.55;;;;;;;25.66;65.74;98389.91;4485405;31;32927;-73
2023/08/05 05:49:51;;;;;;;6.50;2.92;;;;;;;25.94;65.31;98383.59;4485600;31;33877;-74
2023/08/05 05:52:18;;;;;;;6.12;3.35;;;;;;;26.08;64.82;98392.34;4494763;31;34012;-73
2023/08/05 05:54:46;;;;;;;5.07;3.42;;;;;;;25.96;65.31;98390.50;4488148;31;33597;-78
2023/08/05 05:57:14;;;;;;;6.55;3.65;;;;;;;26.19;64.78;98400.47;4475054;31;33183;-74
2023/08/05 05:59:43;;;;;;;6.10;3.37;;;;;;;26.24;64.43;98395.09;4480746;31;33427;-72
2023/08/05 06:02:11;;;;;;;6.95;3.22;;;;;;;26.14;64.94;98400.41;4470711;31;33655;-72
2023/08/05 06:04:39;;;;;;;5.32;3.05;;;;;;;26.30;64.13;98392.44;4478282;31;33375;-73
2023/08/05 06:07:07;;;;;;;6.32;3.55;;;;;;;26.35;63.98;98403.47;4492793;31;33185;-74
2023/08/05 06:09:35;;;;;;;5.25;2.87;;;;;;;26.43;63.92;98401.16;4479603;32;33670;-73
2023/08/05 06:12:03;;;;;;;4.50;2.55;;;;;;;26.56;63.32;98404.69;4471200;31;33691;-73
2023/08/05 06:14:30;;;;;;;5.00;2.90;;;;;;;26.56;63.03;98396.44;4482871;31;33630;-74
2023/08/05 06:16:58;;;;;;;6.12;3.80;;;;;;;26.66;62.88;98397.41;4467325;32;32085;-73
2023/08/05 06:19:26;;;;;;;5.15;2.85;;;;;;;26.69;62.31;98405.16;4483115;31;33613;-78
2023/08/05 06:21:54;;;;;;;6.70;3.22;;;;;;;26.72;62.92;98403.81;4477316;31;33864;-77
2023/08/05 06:24:21;;;;;;;5.12;3.17;;;;;;;26.64;63.25;98416.03;4479844;31;34780;-71
2023/08/05 06:26:49;;;;;;;5.15;2.97;;;;;;;26.81;63.11;98404.22;4485080;31;33019;-71
2023/08/05 06:29:17;;;;;;;4.85;3.03;;;;;;;26.62;64.81;98412.72;4478489;31;33872;-71
2023/08/05 06:31:44;;;;;;;5.70;3.33;;;;;;;26.77;64.02;98419.53;4475530;31;34866;-71
2023/08/05 06:34:12;;;;;;;5.87;3.78;;;;;;;26.95;63.78;98406.34;4478055;31;35076;-70
2023/08/05 06:36:40;;;;;;;6.75;3.67;;;;;;;26.79;63.72;98403.66;4487092;31;32719;-68
2023/08/05 06:39:07;;;;;;;7.55;3.65;;;;;;;26.82;62.57;98397.66;4488113;31;35462;-71
2023/08/05 06:41:35;;;;;;;6.37;3.00;;;;;;;26.64;63.25;98402.31;4481362;31;33767;-72
2023/08/05 06:44:04;;;;;;;6.35;3.55;;;;;;;26.76;64.09;98402.22;4487603;31;33591;-72
2023/08/05 06:46:31;;;;;;;5.75;3.92;;;;;;;26.82;64.80;98403.13;4490563;31;34442;-71
2023/08/05 06:48:59;;;;;;;5.40;3.28;;;;;;;26.91;64.55;98407.13;4496542;31;33820;-73
2023/08/05 06:51:27;;;;;;;6.32;3.55;;;;;;;26.91;65.10;98404.38;4487946;31;35266;-73
2023/08/05 06:53:55;;;;;;;4.97;2.95;;;;;;;26.95;63.75;98411.00;4480889;31;33509;-74
2023/08/05 06:56:22;;;;;;;5.07;3.08;;;;;;;26.83;63.08;98405.63;4484428;32;32939;-74
2023/08/05 06:58:50;;;;;;;5.05;3.25;;;;;;;26.82;63.28;98409.47;4489924;31;34828;-73
2023/08/05 07:01:18;;;;;;;5.43;3.37;;;;;;;26.41;63.05;98410.72;4485643;31;34072;-73
2023/08/05 07:03:46;;;;;;;4.80;3.05;;;;;;;25.87;64.14;98421.28;4481353;31;33560;-75
2023/08/05 07:06:13;;;;;;;5.40;3.53;;;;;;;26.09;64.99;98418.66;4480981;31;32987;-74
2023/08/05 07:08:41;;;;;;;5.72;3.37;;;;;;;25.90;65.02;98424.38;4481006;31;34670;-73
2023/08/05 07:11:09;;;;;;;4.18;2.72;;;;;;;26.15;65.19;98426.75;4481319;31;34207;-71
2023/08/05 07:13:36;;;;;;;6.97;4.00;;;;;;;25.89;65.82;98430.09;4498987;31;33275;-73
2023/08/05 07:16:04;;;;;;;6.07;3.50;;;;;;;25.69;66.07;98436.84;4484212;31;34424;-75
2023/08/05 07:18:32;;;;;;;4.95;3.05;;;;;;;25.99;64.80;98441.25;4484405;31;34366;-73
2023/08/05 07:21:00;;;;;;;6.50;3.58;;;;;;;26.35;65.27;98442.72;4474926;31;33845;-75
2023/08/05 07:23:27;;;;;;;5.68;3.45;;;;;;;26.20;65.15;98435.06;4486337;31;33620;-74
2023/08/05 07:25:59;;;;;;;6.20;4.07;;;;;;;25.68;67.12;98426.09;4482513;31;33209;-74
2023/08/05 07:28:27;;;;;;;6.15;3.70;;;;;;;26.18;65.26;98426.25;4488708;31;34721;-73
2023/08/05 07:31:05;;;;;;;6.10;3.62;;;;;;;25.56;68.45;98423.44;4479368;32;35018;-74
2023/08/05 07:33:33;;;;;;;7.00;3.65;;;;;;;25.97;66.30;98422.31;4479206;32;34880;-74
2023/08/05 07:36:11;;;;;;;5.47;3.70;;;;;;;25.96;66.64;98420.66;4486814;31;32884;-74
2023/08/05 07:38:45;;;;;;;9.65;3.50;;;;;;;26.21;65.60;98420.25;4478526;31;33516;-75
2023/08/05 07:41:12;;;;;;;7.47;4.30;;;;;;;26.38;64.58;98419.44;4480641;31;33693;-74
2023/08/05 07:43:42;;;;;;;8.55;4.78;;;;;;;26.39;64.16;98421.13;4482840;31;33406;-74
2023/08/05 07:46:13;;;;;;;7.68;5.28;;;;;;;26.43;64.53;98406.66;4497551;31;33941;-75
2023/08/05 07:48:42;;;;;;;7.90;5.55;;;;;;;26.50;64.50;98408.41;4483523;31;32545;-74
2023/08/05 07:51:09;;;;;;;7.87;4.65;;;;;;;26.69;65.65;98405.16;4496258;31;34718;-75
2023/08/05 07:53:37;;;;;;;6.53;4.87;;;;;;;26.72;64.50;98406.56;4480618;31;33660;-76
2023/08/05 07:56:12;;;;;;;5.45;3.62;;;;;;;26.81;64.45;98406.97;4488848;31;33146;-75
2023/08/05 07:58:44;;;;;;;7.32;5.07;;;;;;;26.95;64.00;98416.50;4483465;31;33581;-74
2023/08/05 08:01:13;;;;;;;8.10;4.65;;;;;;;27.12;63.16;98421.94;4481916;31;35019;-75
2023/08/05 08:03:42;;;;;;;7.00;4.65;;;;;;;27.15;62.81;98415.97;4485228;32;33880;-74
2023/08/05 08:06:14;;;;;;;6.43;4.55;;;;;;;27.21;62.58;98422.38;4485094;32;33443;-75
2023/08/05 08:08:42;;;;;;;8.45;4.93;;;;;;;26.48;64.22;98409.50;4485404;31;34262;-75
2023/08/05 08:11:10;;;;;;;7.00;4.68;;;;;;;26.81;63.33;98429.75;4495157;31;33974;-76
2023/08/05 08:13:39;;;;;;;6.45;4.55;;;;;;;25.99;65.98;98428.38;4487257;31;33741;-72
2023/08/05 08:16:07;;;;;;;10.32;5.15;;;;;;;26.56;63.92;98427.44;4487971;31;33093;-74
2023/08/05 08:18:35;;;;;;;7.72;5.20;;;;;;;26.65;63.38;98425.94;4491873;31;34457;-76
2023/08/05 08:21:03;;;;;;;7.37;4.25;;;;;;;26.67;63.24;98439.41;4494087;31;35447;-76
2023/08/05 08:23:31;;;;;;;5.10;3.92;;;;;;;26.21;64.89;98435.88;4499913;31;33531;-77
2023/08/05 08:25:59;;;;;;;7.72;3.92;;;;;;;26.69;64.32;98438.09;4482708;31;34339;-75
2023/08/05 08:28:27;;;;;;;8.48;4.70;;;;;;;26.93;64.01;98438.72;4482985;31;33748;-76
2023/08/05 08:30:56;;;;;;;8.20;5.60;;;;;;;26.49;64.37;98451.50;4485046;31;33629;-76
2023/08/05 08:33:26;;;;;;;7.47;4.15;;;;;;;26.55;63.96;98445.00;4487069;31;33516;-76
2023/08/05 08:35:54;;;;;;;7.62;4.95;;;;;;;27.01;62.87;98455.84;4483423;32;33396;-74
2023/08/05 08:38:25;;;;;;;6.43;4.20;;;;;;;27.26;62.49;98467.22;4484141;32;33279;-74
2023/08/05 08:40:58;;;;;;;9.45;4.60;;;;;;;27.26;62.24;98467.22;4487192;31;33736;-72
2023/08/05 08:43:26;;;;;;;9.00;6.72;;;;;;;27.27;62.01;98474.38;4484426;32;33125;-74
2023/08/05 08:45:54;;;;;;;7.82;4.65;;;;;;;27.10;62.43;98465.31;4481999;31;33351;-76
2023/08/05 08:48:23;;;;;;;9.10;5.28;;;;;;;27.20;62.12;98475.66;4482785;31;33780;-77
2023/08/05 08:50:53;;;;;;;8.50;5.30;;;;;;;27.39;61.97;98477.00;4487417;31;34987;-78
2023/08/05 08:53:21;;;;;;;7.30;4.55;;;;;;;27.48;61.89;98480.12;4483620;31;33565;-76
2023/08/05 08:55:49;;;;;;;9.23;5.28;;;;;;;27.67;61.86;98464.97;4490052;31;33780;-75
2023/08/05 08:58:17;;;;;;;8.18;4.78;;;;;;;27.41;62.44;98461.09;4492890;31;34340;-76
2023/08/05 09:00:45;;;;;;;10.07;5.10;;;;;;;27.46;61.64;98466.66;4479167;31;34372;-73
2023/08/05 09:03:13;;;;;;;9.07;5.03;;;;;;;27.28;62.53;98467.78;4486420;31;33536;-74
2023/08/05 09:05:46;;;;;;;6.45;4.75;;;;;;;27.40;62.17;98464.94;4489405;31;33522;-77
2023/08/05 09:08:13;;;;;;;8.18;4.60;;;;;;;27.39;62.56;98471.50;4485212;31;33253;-75
2023/08/05 09:10:43;;;;;;;11.27;7.28;;;;;;;27.05;63.53;98465.22;4494317;31;35242;-76
2023/08/05 09:13:11;;;;;;;10.00;6.95;;;;;;;26.91;63.87;98462.03;4495920;31;34583;-76
2023/08/05 09:15:39;;;;;;;10.25;6.80;;;;;;;26.97;63.64;98458.28;4494960;31;33234;-76
2023/08/05 09:18:08;;;;;;;9.95;6.45;;;;;;;27.06;63.77;98465.00;4484323;31;34928;-76
2023/08/05 09:20:37;;;;;;;12.73;8.45;;;;;;;27.11;63.16;98461.47;4485215;31;33672;-74
2023/08/05 09:23:06;;;;;;;11.35;8.32;;;;;;;26.81;65.44;98450.91;4492757;31;34889;-74
2023/08/05 09:25:42;;;;;;;9.68;7.37;;;;;;;27.18;63.91;98452.00;4486262;31;33226;-74
2023/08/05 09:28:10;;;;;;;9.25;7.40;;;;;;;27.17;63.81;98450.34;4482489;32;35032;-72
2023/08/05 09:30:38;;;;;;;10.00;6.97;;;;;;;27.43;63.32;98450.69;4498484;31;32965;-76
2023/08/05 09:33:05;;;;;;;10.95;8.35;;;;;;;27.46;63.23;98447.41;4496369;31;33931;-74
2023/08/05 09:35:33;;;;;;;10.98;8.57;;;;;;;27.32;63.38;98452.47;4486173;31;33165;-75
2023/08/05 09:38:01;;;;;;;15.57;9.00;;;;;;;27.20;63.53;98453.69;4481468;31;34817;-77
2023/08/05 09:40:33;;;;;;;10.95;7.82;;;;;;;27.18;63.80;98451.16;4482159;31;34056;-74
2023/08/05 09:43:03;;;;;;;11.55;8.68;;;;;;;27.26;63.62;98460.91;4483765;31;33675;-74
2023/08/05 09:45:32;;;;;;;12.30;8.88;;;;;;;27.31;63.70;98456.28;4481639;31;32925;-74
2023/08/05 09:48:09;;;;;;;12.25;9.90;;;;;;;27.44;63.60;98452.31;4489150;31;33917;-74
2023/08/05 09:50:38;;;;;;;10.98;8.68;;;;;;;27.43;63.30;98442.44;4482688;31;34491;-73
2023/08/05 09:53:08;;;;;;;12.45;10.05;;;;;;;27.46;62.97;98438.34;4492695;31;34526;-74
2023/08/05 09:55:39;;;;;;;15.15;9.88;;;;;;;27.49;63.19;98435.09;4484994;31;33308;-72
2023/08/05 09:58:07;;;;;;;12.60;9.40;;;;;;;27.06;64.06;98439.44;4484866;31;33747;-75
2023/08/05 10:00:40;;;;;;;15.07;9.93;;;;;;;27.10;65.03;98443.34;4487374;31;33936;-74
2023/08/05 10:03:13;;;;;;;13.93;10.38;;;;;;;27.62;63.47;98443.75;4486302;31;33929;-74
2023/08/05 10:05:43;;;;;;;14.82;10.93;;;;;;;27.55;63.79;98448.63;4486015;31;33049;-74
2023/08/05 10:08:13;;;;;;;15.60;11.30;;;;;;;27.49;63.09;98452.41;4488763;31;34663;-73
2023/08/05 10:10:42;;;;;;;16.30;11.00;;;;;;;27.50;63.48;98459.56;4482483;32;35209;-73
2023/08/05 10:13:16;;;;;;;16.00;11.02;;;;;;;27.54;63.63;98454.37;4470478;32;33475;-73
2023/08/05 10:15:48;;;;;;;16.92;11.95;;;;;;;27.68;63.88;98452.09;4487646;31;34665;-73
2023/08/05 10:18:16;;;;;;;19.50;11.90;;;;;;;27.70;63.15;98450.72;4473182;32;34090;-76
2023/08/05 10:20:53;;;;;;;13.62;11.27;;;;;;;27.93;62.16;98449.66;4485714;31;33979;-74
2023/08/05 10:23:25;;;;;;;11.90;10.57;;;;;;;28.03;62.02;98457.19;4484236;31;33496;-74
2023/08/05 10:25:58;;;;;;;15.35;10.30;;;;;;;27.78;62.14;98452.22;4480888;31;34285;-72
2023/08/05 10:28:26;;;;;;;17.60;12.85;;;;;;;28.18;61.79;98448.22;4477551;31;33963;-75
2023/08/05 10:30:54;;;;;;;17.37;12.02;;;;;;;27.83;62.26;98442.12;4497534;31;33908;-79
2023/08/05 10:33:23;;;;;;;16.58;11.93;;;;;;;27.89;61.78;98442.97;4494018;31;34767;-74
2023/08/05 10:36:00;;;;;;;17.70;13.35;;;;;;;27.88;61.70;98441.34;4487777;31;34166;-72
2023/08/05 10:38:30;;;;;;;17.98;12.95;;;;;;;28.10;61.64;98442.12;4474156;31;33784;-73
2023/08/05 10:41:04;;;;;;;17.23;14.95;;;;;;;27.59;62.82;98441.53;4489484;31;33802;-75
2023/08/05 10:43:33;;;;;;;15.43;13.50;;;;;;;27.89;62.17;98448.47;4483104;31;34811;-76
2023/08/05 10:46:07;;;;;;;16.42;13.05;;;;;;;28.32;60.87;98443.97;4490314;31;33222;-75
2023/08/05 10:48:37;;;;;;;15.98;12.73;;;;;;;27.97;61.18;98437.03;4476535;32;33911;-71
2023/08/05 10:51:18;;;;;;;17.87;14.45;;;;;;;27.71;62.97;98441.41;4482880;31;33949;-73
2023/08/05 10:53:52;;;;;;;19.80;13.68;;;;;;;28.31;61.53;98448.66;4476633;31;33467;-76
2023/08/05 10:56:28;;;;;;;18.08;13.55;;;;;;;27.97;62.60;98447.22;4478463;32;32730;-74
2023/08/05 10:58:58;;;;;;;17.15;15.25;;;;;;;28.47;61.06;98443.28;4481276;31;33851;-74
2023/08/05 11:01:55;;;;;;;22.37;15.55;;;;;;;28.14;60.34;98442.41;4482205;32;34226;-74
2023/08/05 11:04:28;;;;;;;20.50;13.62;;;;;;;28.59;59.36;98438.44;4480254;32;33626;-73
2023/08/05 11:06:59;;;;;;;18.80;14.45;;;;;;;28.59;59.94;98445.87;4481477;31;32425;-75
2023/08/05 11:09:32;;;;;;;16.62;13.05;;;;;;;28.66;59.74;98438.19;4475513;32;33602;-73
2023/08/05 11:12:00;;;;;;;18.60;15.70;;;;;;;28.64;60.58;98445.91;4480883;32;33728;-73
2023/08/05 11:14:28;;;;;;;16.25;12.85;;;;;;;28.64;60.33;98445.91;4478342;31;33529;-74
2023/08/05 11:17:07;;;;;;;16.70;12.50;;;;;;;28.54;60.04;98439.22;4480038;32;33446;-74
2023/08/05 11:19:53;;;;;;;16.90;12.60;;;;;;;28.03;61.41;98444.25;4482000;32;35002;-75
2023/08/05 11:22:26;;;;;;;14.52;11.60;;;;;;;28.10;62.66;98439.34;4481730;32;33082;-73
2023/08/05 11:25:00;;;;;;;15.57;11.32;;;;;;;27.77;62.69;98451.41;4480192;32;34479;-73
2023/08/05 11:27:36;;;;;;;;;;;;;;;27.87;62.73;98454.25;4478692;31;33240;-75
2023/08/05 11:30:17;;;;;;;14.80;11.77;;;;;;;27.97;62.72;98455.47;4477894;32;34615;-75
2023/08/05 11:32:52;;;;;;;16.50;12.10;;;;;;;28.05;62.30;98458.56;4480805;31;33949;-72
2023/08/05 11:35:19;;;;;;;;;;;;;;;27.42;65.68;98462.75;4475783;31;33510;-78
2023/08/05 11:37:48;;;;;;;13.88;11.50;;;;;;;27.40;65.82;98462.19;4479775;32;32220;-78
2023/08/05 11:40:16;;;;;;;12.52;10.32;;;;;;;27.74;64.32;98456.56;4480032;31;34003;-76